ěÝzenÝ letovÚho provozu ╚eskÚ republiky
Letiste: LKPD Aktualizace: 07.04.2020 02:30:26  UTC
 METAR LKPD 07.04. 02:30 ...
METAR LKPD 070230Z 04004KT CAVOK 07/M04 Q1029 RMK BLU=
 TAF LKPD 06.04. 23:00 ...
TAF LKPD 062300Z 0700/0800 09005KT CAVOK=